Time;durP1;ratioP1;P1;durP2;ratioP2;P2;SDS_P1;SDS_P2;PMS_P1;PMS_P2;Temp;Humidity;BMP_temperature;BMP_pressure;BME280_temperature;BME280_humidity;BME280_pressure;Samples;Min_cycle;Max_cycle;Signal;HPM_P1;HPM_P2
2022/06/27 00:01:08;;;;;;;;;;;19.00;99.90;;;;;;4359808;32;42967;-80
2022/06/27 00:03:36;;;;;;;;;;;19.00;99.90;;;;;;4360021;32;43432;-80
2022/06/27 00:06:03;;;;;;;;;;;19.00;99.90;;;;;;4358720;32;43024;-80
2022/06/27 00:08:30;;;;;;;;;;;19.00;99.90;;;;;;4358726;32;43804;-80
2022/06/27 00:10:57;;;;;;;;;;;19.00;99.90;;;;;;4360137;32;43304;-80
2022/06/27 00:13:25;;;;;;;;;;;19.00;99.90;;;;;;4359103;32;43053;-80
2022/06/27 00:15:52;;;;;;;;;;;19.00;99.90;;;;;;4359751;32;43243;-80
2022/06/27 00:18:19;;;;;;;;;;;19.00;99.90;;;;;;4360196;32;44065;-80
2022/06/27 00:20:46;;;;;;;;;;;19.00;99.90;;;;;;4360066;32;43430;-80
2022/06/27 00:23:13;;;;;;;;;;;19.00;99.90;;;;;;4358968;32;43183;-80
2022/06/27 00:25:40;;;;;;;;;;;18.90;99.90;;;;;;4360065;32;43262;-80
2022/06/27 00:28:07;;;;;;;;;;;18.90;99.90;;;;;;4358456;32;44191;-79
2022/06/27 00:30:34;;;;;;;;;;;18.90;99.90;;;;;;4359784;33;43307;-80
2022/06/27 00:33:01;;;;;;;;;;;18.90;99.90;;;;;;4358832;33;44266;-81
2022/06/27 00:35:28;;;;;;;;;;;18.90;99.90;;;;;;4360102;33;44223;-80
2022/06/27 00:37:55;;;;;;;;;;;18.90;99.90;;;;;;4358991;33;44116;-79
2022/06/27 00:40:23;;;;;;;;;;;18.90;99.90;;;;;;4358848;33;43189;-80
2022/06/27 00:42:50;;;;;;;;;;;18.80;99.90;;;;;;4358650;33;44189;-80
2022/06/27 00:45:17;;;;;;;;;;;18.80;99.90;;;;;;4359613;33;43290;-80
2022/06/27 00:47:44;;;;;;;;;;;18.80;99.90;;;;;;4360887;32;42727;-80
2022/06/27 00:50:11;;;;;;;;;;;18.80;99.90;;;;;;4362861;32;44102;-79
2022/06/27 00:52:38;;;;;;;;;;;18.80;99.90;;;;;;4361813;32;43338;-79
2022/06/27 00:55:06;;;;;;;;;;;18.90;99.90;;;;;;4361411;32;43984;-80
2022/06/27 00:57:33;;;;;;;;;;;18.80;99.90;;;;;;4361401;32;44147;-79
2022/06/27 01:00:00;;;;;;;;;;;18.80;99.90;;;;;;4363116;32;20052;-79
2022/06/27 01:02:28;;;;;;;;;;;18.80;99.90;;;;;;4370438;32;42691;-80
2022/06/27 01:04:55;;;;;;;;;;;18.80;99.90;;;;;;4364207;32;42545;-79
2022/06/27 01:07:22;;;;;;;;;;;18.80;99.90;;;;;;4377145;32;44206;-79
2022/06/27 01:09:49;;;;;;;;;;;18.80;99.90;;;;;;4364122;32;44353;-80
2022/06/27 01:12:16;;;;;;;;;;;18.80;99.90;;;;;;4364091;32;43426;-80
2022/06/27 01:14:43;;;;;;;;;;;18.80;99.90;;;;;;4377407;32;43282;-80
2022/06/27 01:17:11;;;;;;;;;;;18.80;99.90;;;;;;4377312;32;43105;-79
2022/06/27 01:19:40;;;;;;;;;;;18.80;99.90;;;;;;4377495;32;43764;-80
2022/06/27 01:22:08;;;;;;;;;;;18.80;99.90;;;;;;4363644;32;42801;-80
2022/06/27 01:24:36;;;;;;;;;;;18.80;99.90;;;;;;4363524;32;44310;-80
2022/06/27 01:27:06;;;;;;;;;;;18.80;99.90;;;;;;4363742;32;44121;-80
2022/06/27 01:29:33;;;;;;;;;;;18.80;99.90;;;;;;4364091;32;43538;-79
2022/06/27 01:32:00;;;;;;;;;;;18.80;99.90;;;;;;4376790;32;45621;-79
2022/06/27 01:34:28;;;;;;;;;;;18.80;99.90;;;;;;4377274;32;44201;-80
2022/06/27 01:36:55;;;;;;;;;;;18.80;99.90;;;;;;4363689;32;44599;-80
2022/06/27 01:39:23;;;;;;;;;;;18.80;99.90;;;;;;4377154;32;43751;-80
2022/06/27 01:41:51;;;;;;;;;;;18.80;99.90;;;;;;4363433;32;45310;-80
2022/06/27 01:44:19;;;;;;;;;;;18.80;99.90;;;;;;4377158;32;43498;-80
2022/06/27 01:47:00;;;;;;;;;;;18.80;99.90;;;;;;4377012;32;44048;-80
2022/06/27 01:49:28;;;;;;;;;;;18.80;99.90;;;;;;4376587;32;43802;-80
2022/06/27 01:51:56;;;;;;;;;;;18.80;99.90;;;;;;4363106;32;43984;-80
2022/06/27 01:54:24;;;;;;;;;;;18.80;99.90;;;;;;4377053;32;45783;-80
2022/06/27 01:56:51;;;;;;;;;;;18.80;99.90;;;;;;4376649;32;44076;-80
2022/06/27 01:59:25;;;;;;;;;;;18.80;99.90;;;;;;4362378;32;43320;-80
2022/06/27 02:01:52;;;;;;;;;;;18.80;99.90;;;;;;4376681;32;44176;-80
2022/06/27 02:04:19;;;;;;;;;;;18.80;99.90;;;;;;4376468;32;43937;-81
2022/06/27 02:06:47;;;;;;;;;;;18.80;99.90;;;;;;4363141;32;45649;-81
2022/06/27 02:09:14;;;;;;;;;;;18.80;99.90;;;;;;4362857;32;43172;-80
2022/06/27 02:11:42;;;;;;;;;;;18.80;99.90;;;;;;4362928;32;43910;-80
2022/06/27 02:14:11;;;;;;;;;;;18.80;99.90;;;;;;4376786;32;43933;-80
2022/06/27 02:16:39;;;;;;;;;;;18.80;99.90;;;;;;4376198;32;44031;-80
2022/06/27 02:19:07;;;;;;;;;;;18.80;99.90;;;;;;4362814;32;44097;-80
2022/06/27 02:21:34;;;;;;;;;;;18.80;99.90;;;;;;4362930;32;43829;-80
2022/06/27 02:24:01;;;;;;;;;;;18.80;99.90;;;;;;4362770;32;43986;-80
2022/06/27 02:26:29;;;;;;;;;;;18.80;99.90;;;;;;4376169;32;43017;-81
2022/06/27 02:28:57;;;;;;;;;;;18.80;99.90;;;;;;4362739;32;44223;-83
2022/06/27 02:31:25;;;;;;;;;;;18.80;99.90;;;;;;4362715;32;42707;-80
2022/06/27 02:33:53;;;;;;;;;;;18.80;99.90;;;;;;4362532;32;44053;-81
2022/06/27 02:36:28;;;;;;;;;;;18.80;99.90;;;;;;4376116;32;42268;-81
2022/06/27 02:38:55;;;;;;;;;;;18.80;99.90;;;;;;4376549;32;45179;-81
2022/06/27 02:41:25;;;;;;;;;;;18.70;99.90;;;;;;4362570;32;44170;-81
2022/06/27 02:43:55;;;;;;;;;;;18.70;99.90;;;;;;4362565;32;43751;-81
2022/06/27 02:46:22;;;;;;;;;;;18.70;99.90;;;;;;4376785;32;42852;-81
2022/06/27 02:48:50;;;;;;;;;;;18.70;99.90;;;;;;4375981;32;45771;-81
2022/06/27 02:51:21;;;;;;;;;;;18.70;99.90;;;;;;4363091;32;43900;-81
2022/06/27 02:54:11;;;;;;;;;;;18.70;99.90;;;;;;4362803;32;44230;-81
2022/06/27 02:56:41;;;;;;;;;;;18.70;99.90;;;;;;4328273;32;45040;-82
2022/06/27 02:59:15;;;;;;;;;;;18.70;99.90;;;;;;4362851;32;44196;-82
2022/06/27 03:01:42;;;;;;;;;;;18.70;99.90;;;;;;4376539;32;20012;-82
2022/06/27 03:04:09;;;;;;;;;;;18.70;99.90;;;;;;4375820;32;43376;-82
2022/06/27 03:06:37;;;;;;;;;;;18.70;99.90;;;;;;4375530;32;43973;-82
2022/06/27 03:09:04;;;;;;;;;;;18.70;99.90;;;;;;4362564;32;44169;-81
2022/06/27 03:11:31;;;;;;;;;;;18.60;99.90;;;;;;4362160;32;43788;-82
2022/06/27 03:13:58;;;;;;;;;;;18.60;99.90;;;;;;4362730;32;43652;-82
2022/06/27 03:16:25;;;;;;;;;;;18.60;99.90;;;;;;4362376;32;43235;-81
2022/06/27 03:18:53;;;;;;;;;;;18.60;99.90;;;;;;4375741;32;42763;-81
2022/06/27 03:21:20;;;;;;;;;;;18.60;99.90;;;;;;4362279;32;42924;-82
2022/06/27 03:23:48;;;;;;;;;;;18.60;99.90;;;;;;4361927;32;44191;-82
2022/06/27 03:26:15;;;;;;;;;;;18.60;99.90;;;;;;4362031;32;43476;-81
2022/06/27 03:28:43;;;;;;;;;;;18.60;99.90;;;;;;4362105;32;44003;-81
2022/06/27 03:31:10;;;;;;;;;;;18.60;99.90;;;;;;4361869;32;42386;-81
2022/06/27 03:33:37;;;;;;;;;;;18.60;99.90;;;;;;4362050;32;43605;-81
2022/06/27 03:36:05;;;;;;;;;;;18.60;99.90;;;;;;4375061;32;42711;-82
2022/06/27 03:38:32;;;;;;;;;;;18.60;99.90;;;;;;4361890;32;43401;-82
2022/06/27 03:41:00;;;;;;;;;;;18.60;99.90;;;;;;4375482;32;43545;-81
2022/06/27 03:43:27;;;;;;;;;;;18.50;99.90;;;;;;4375246;32;43435;-80
2022/06/27 03:45:55;;;;;;;;;;;18.50;99.90;;;;;;4375270;32;43472;-81
2022/06/27 03:51:08;;;;;;;;;;;18.50;99.90;;;;;;4375174;32;42573;-81
2022/06/27 03:53:35;;;;;;;;;;;18.50;99.90;;;;;;4375086;32;42590;-81
2022/06/27 03:56:03;;;;;;;;;;;18.50;99.90;;;;;;4361920;32;42728;-82
2022/06/27 03:58:30;;;;;;;;;;;18.50;99.90;;;;;;4361805;32;43315;-82
2022/06/27 04:00:57;;;;;;;;;;;18.50;99.90;;;;;;4361874;32;43868;-82
2022/06/27 04:03:24;;;;;;;;;;;18.50;99.90;;;;;;4361525;32;44166;-82
2022/06/27 04:05:51;;;;;;;;;;;18.50;99.90;;;;;;4361487;32;42356;-82
2022/06/27 04:08:18;;;;;;;;;;;18.50;99.90;;;;;;4375151;32;43292;-82
2022/06/27 04:10:45;;;;;;;;;;;18.50;99.90;;;;;;4361296;32;43548;-81
2022/06/27 04:13:13;;;;;;;;;;;18.50;99.90;;;;;;4374549;32;45528;-81
2022/06/27 04:15:40;;;;;;;;;;;18.50;99.90;;;;;;4361687;32;44179;-82
2022/06/27 04:18:07;;;;;;;;;;;18.50;99.90;;;;;;4374586;32;45308;-83
2022/06/27 04:20:34;;;;;;;;;;;18.40;99.90;;;;;;4361669;32;43482;-82
2022/06/27 04:23:01;;;;;;;;;;;18.50;99.90;;;;;;4374209;32;44236;-82
2022/06/27 04:25:28;;;;;;;;;;;18.40;99.90;;;;;;4361521;32;43521;-83
2022/06/27 04:27:55;;;;;;;;;;;18.40;99.90;;;;;;4361762;32;44019;-82
2022/06/27 04:30:23;;;;;;;;;;;18.40;99.90;;;;;;4361457;32;43303;-82
2022/06/27 04:32:50;;;;;;;;;;;18.40;99.90;;;;;;4361240;32;44188;-82
2022/06/27 04:35:17;;;;;;;;;;;18.40;99.90;;;;;;4361145;32;42722;-82
2022/06/27 04:37:45;;;;;;;;;;;18.40;99.90;;;;;;4361352;32;43199;-82
2022/06/27 04:40:12;;;;;;;;;;;18.40;99.90;;;;;;4374825;32;44219;-83
2022/06/27 04:42:42;;;;;;;;;;;18.40;99.90;;;;;;4374910;32;43906;-82
2022/06/27 04:45:12;;;;;;;;;;;18.40;99.90;;;;;;4361329;32;45318;-83
2022/06/27 04:47:44;;;;;;;;;;;18.40;99.90;;;;;;4360954;32;44326;-83
2022/06/27 04:50:13;;;;;;;;;;;18.40;99.90;;;;;;4361084;32;42850;-83
2022/06/27 04:52:41;;;;;;;;;;;18.30;99.90;;;;;;4361180;32;46213;-83
2022/06/27 04:55:13;;;;;;;;;;;18.30;99.90;;;;;;4362012;32;44784;-82
2022/06/27 04:57:44;;;;;;;;;;;18.30;99.90;;;;;;4374452;32;43575;-82
2022/06/27 05:00:15;;;;;;;;;;;18.30;99.90;;;;;;4374758;32;44346;-82
2022/06/27 05:02:50;;;;;;;;;;;18.30;99.90;;;;;;4374075;32;45772;-82
2022/06/27 05:05:21;;;;;;;;;;;18.40;99.90;;;;;;4362793;32;20437;-81
2022/06/27 05:07:51;;;;;;;;;;;18.40;99.90;;;;;;4361130;32;44046;-81
2022/06/27 05:10:19;;;;;;;;;;;18.30;99.90;;;;;;4361162;32;44508;-81
2022/06/27 05:12:51;;;;;;;;;;;18.40;99.90;;;;;;4362280;32;20007;-82
2022/06/27 05:15:30;;;;;;;;;;;18.40;99.90;;;;;;4374494;32;43520;-82
2022/06/27 05:17:57;;;;;;;;;;;18.40;99.90;;;;;;4361067;32;43151;-82
2022/06/27 05:20:24;;;;;;;;;;;18.40;99.90;;;;;;4361162;32;43607;-81
2022/06/27 05:22:51;;;;;;;;;;;18.40;99.90;;;;;;4360891;32;43457;-80
2022/06/27 05:25:19;;;;;;;;;;;18.40;99.90;;;;;;4360707;32;43304;-80
2022/06/27 05:27:46;;;;;;;;;;;18.40;99.90;;;;;;4374138;32;44172;-81
2022/06/27 05:30:13;;;;;;;;;;;18.40;99.90;;;;;;4374100;32;44172;-81
2022/06/27 05:32:41;;;;;;;;;;;18.30;99.90;;;;;;4374115;32;44212;-80
2022/06/27 05:35:08;;;;;;;;;;;18.40;99.90;;;;;;4376240;32;45448;-81
2022/06/27 05:37:37;;;;;;;;;;;18.30;99.90;;;;;;4376806;32;43485;-82
2022/06/27 05:40:08;;;;;;;;;;;18.30;99.90;;;;;;4376905;32;43183;-81
2022/06/27 05:42:35;;;;;;;;;;;18.30;99.90;;;;;;4376885;32;43620;-81
2022/06/27 05:45:03;;;;;;;;;;;18.40;99.90;;;;;;4363524;32;43000;-81
2022/06/27 05:47:31;;;;;;;;;;;18.30;99.90;;;;;;4376719;32;43769;-81
2022/06/27 05:50:02;;;;;;;;;;;18.30;99.90;;;;;;4376591;32;43305;-81
2022/06/27 05:52:30;;;;;;;;;;;18.30;99.90;;;;;;4363625;32;43700;-81
2022/06/27 05:54:59;;;;;;;;;;;18.30;99.90;;;;;;4377098;32;43480;-81
2022/06/27 05:57:27;;;;;;;;;;;18.30;99.90;;;;;;4376983;32;43775;-81
2022/06/27 05:59:55;;;;;;;;;;;18.30;99.90;;;;;;4363458;32;43478;-81
2022/06/27 06:02:25;;;;;;;;;;;18.30;99.90;;;;;;4376451;32;44194;-81
2022/06/27 06:04:53;;;;;;;;;;;18.30;99.90;;;;;;4376525;32;43228;-80
2022/06/27 06:07:23;;;;;;;;;;;18.30;99.90;;;;;;4376397;32;42903;-81
2022/06/27 06:09:50;;;;;;;;;;;18.30;99.90;;;;;;4363273;32;44195;-81
2022/06/27 06:12:18;;;;;;;;;;;18.30;99.90;;;;;;4363005;32;42218;-82
2022/06/27 06:14:46;;;;;;;;;;;18.30;99.90;;;;;;4362932;32;44234;-84
2022/06/27 06:17:13;;;;;;;;;;;18.30;99.90;;;;;;4376192;32;44889;-81
2022/06/27 06:19:41;;;;;;;;;;;18.30;99.90;;;;;;4376777;32;44252;-82
2022/06/27 06:22:08;;;;;;;;;;;18.30;99.90;;;;;;4362752;32;44175;-81
2022/06/27 06:24:36;;;;;;;;;;;18.30;99.90;;;;;;4376205;32;43358;-81
2022/06/27 06:27:08;;;;;;;;;;;18.30;99.90;;;;;;4376702;32;42441;-81
2022/06/27 06:29:40;;;;;;;;;;;18.30;99.90;;;;;;4376316;32;46130;-81
2022/06/27 06:32:08;;;;;;;;;;;18.30;99.90;;;;;;4363404;32;44142;-81
2022/06/27 06:34:35;;;;;;;;;;;18.30;99.90;;;;;;4376060;32;43486;-82
2022/06/27 06:37:06;;;;;;;;;;;18.30;99.90;;;;;;4362947;32;43284;-81
2022/06/27 06:39:39;;;;;;;;;;;18.30;99.90;;;;;;4363639;32;42736;-81
2022/06/27 06:42:06;;;;;;;;;;;18.30;99.90;;;;;;4376258;32;43982;-82
2022/06/27 06:44:34;;;;;;;;;;;18.30;99.90;;;;;;4362162;32;45063;-82
2022/06/27 06:47:01;;;;;;;;;;;18.30;99.90;;;;;;4375841;32;44204;-82
2022/06/27 06:49:29;;;;;;;;;;;18.30;99.90;;;;;;4376293;32;43735;-82
2022/06/27 06:51:56;;;;;;;;;;;18.30;99.90;;;;;;4376384;32;44347;-81
2022/06/27 06:54:26;;;;;;;;;;;18.30;99.90;;;;;;4362574;32;43888;-82
2022/06/27 06:56:53;;;;;;;;;;;18.30;99.90;;;;;;4376157;32;43177;-82
2022/06/27 06:59:20;;;;;;;;;;;18.30;99.90;;;;;;4362414;32;43324;-83
2022/06/27 07:01:47;;;;;;;;;;;18.30;99.90;;;;;;4375562;32;42215;-82
2022/06/27 07:04:16;;;;;;;;;;;18.30;99.90;;;;;;4363155;32;20001;-82
2022/06/27 07:06:45;;;;;;;;;;;18.30;99.90;;;;;;4362416;32;42752;-81
2022/06/27 07:09:12;;;;;;;;;;;18.30;99.90;;;;;;4375799;32;43239;-83
2022/06/27 07:11:40;;;;;;;;;;;18.30;99.90;;;;;;4375579;32;43066;-83
2022/06/27 07:14:07;;;;;;;;;;;18.30;99.90;;;;;;4375422;32;43353;-82
2022/06/27 07:16:35;;;;;;;;;;;18.30;99.90;;;;;;4362125;32;43000;-83
2022/06/27 07:19:03;;;;;;;;;;;18.30;99.90;;;;;;4361887;32;44615;-82
2022/06/27 07:21:31;;;;;;;;;;;18.30;99.90;;;;;;4375381;32;43779;-82
2022/06/27 07:24:00;;;;;;;;;;;18.30;99.90;;;;;;4362449;32;44220;-81
2022/06/27 07:26:29;;;;;;;;;;;18.30;99.90;;;;;;4375365;32;43045;-82
2022/06/27 07:28:57;;;;;;;;;;;18.30;99.90;;;;;;4361922;32;43895;-83
2022/06/27 07:31:24;;;;;;;;;;;18.40;99.90;;;;;;4361881;32;44918;-82
2022/06/27 07:33:54;;;;;;;;;;;18.30;99.90;;;;;;4362067;32;43938;-82
2022/06/27 07:36:22;;;;;;;;;;;18.40;99.90;;;;;;4362179;32;44057;-83
2022/06/27 07:38:52;;;;;;;;;;;18.40;99.90;;;;;;4361839;32;43306;-83
2022/06/27 07:41:20;;;;;;;;;;;18.40;99.90;;;;;;4362353;32;43482;-82
2022/06/27 07:43:48;;;;;;;;;;;18.40;99.90;;;;;;4361592;32;43835;-81
2022/06/27 07:46:17;;;;;;;;;;;18.30;99.90;;;;;;4361674;32;43231;-84
2022/06/27 07:48:46;;;;;;;;;;;18.30;99.90;;;;;;4362091;32;43461;-83
2022/06/27 07:51:16;;;;;;;;;;;18.30;99.90;;;;;;4361876;32;42460;-83
2022/06/27 07:53:46;;;;;;;;;;;18.30;99.90;;;;;;4361694;32;43859;-83
2022/06/27 07:56:14;;;;;;;;;;;18.40;99.90;;;;;;4361400;32;43820;-83
2022/06/27 07:58:51;;;;;;;;;;;18.30;99.90;;;;;;4375279;32;44093;-83
2022/06/27 08:01:19;;;;;;;;;;;18.40;99.90;;;;;;4361691;32;43882;-83
2022/06/27 08:03:49;;;;;;;;;;;18.30;99.90;;;;;;4361773;32;44542;-83
2022/06/27 08:06:21;;;;;;;;;;;18.40;99.90;;;;;;4374905;32;43493;-82
2022/06/27 08:08:50;;;;;;;;;;;18.40;99.90;;;;;;4374687;32;44075;-82
2022/06/27 08:11:18;;;;;;;;;;;18.30;99.90;;;;;;4374983;32;43434;-82
2022/06/27 08:13:47;;;;;;;;;;;18.40;99.90;;;;;;4361398;32;43993;-82
2022/06/27 08:16:15;;;;;;;;;;;18.40;99.90;;;;;;4375173;32;42749;-82
2022/06/27 08:18:44;;;;;;;;;;;18.40;99.90;;;;;;4361134;32;44288;-82
2022/06/27 08:21:12;;;;;;;;;;;18.40;99.90;;;;;;4374898;32;42227;-81
2022/06/27 08:23:39;;;;;;;;;;;18.40;99.90;;;;;;4374870;32;44234;-80
2022/06/27 08:26:07;;;;;;;;;;;18.40;99.90;;;;;;4374847;32;43862;-81
2022/06/27 08:28:36;;;;;;;;;;;18.40;99.90;;;;;;4374480;32;44776;-82
2022/06/27 08:31:05;;;;;;;;;;;18.40;99.90;;;;;;4361453;32;43515;-82
2022/06/27 08:33:33;;;;;;;;;;;18.40;99.90;;;;;;4361242;32;44035;-82
2022/06/27 08:36:01;;;;;;;;;;;18.40;99.90;;;;;;4360991;32;44643;-83
2022/06/27 08:38:32;;;;;;;;;;;18.40;99.90;;;;;;4361413;32;45180;-81
2022/06/27 08:41:00;;;;;;;;;;;18.40;99.90;;;;;;4361054;32;42910;-80
2022/06/27 08:43:28;;;;;;;;;;;18.40;99.90;;;;;;4374919;32;42951;-80
2022/06/27 08:45:55;;;;;;;;;;;18.40;99.90;;;;;;4361067;32;43351;-81
2022/06/27 08:48:23;;;;;;;;;;;18.40;99.90;;;;;;4374431;32;42946;-82
2022/06/27 08:50:50;;;;;;;;;;;18.40;99.90;;;;;;4374746;32;44783;-82
2022/06/27 08:53:17;;;;;;;;;;;18.40;99.90;;;;;;4360950;32;43461;-82
2022/06/27 08:55:48;;;;;;;;;;;18.40;99.90;;;;;;4361339;32;44030;-83
2022/06/27 08:58:15;;;;;;;;;;;18.40;99.90;;;;;;4374327;32;42946;-82
2022/06/27 09:00:45;;;;;;;;;;;18.40;99.90;;;;;;4361665;32;45966;-83
2022/06/27 09:03:19;;;;;;;;;;;18.40;99.90;;;;;;4361190;32;44004;-82
2022/06/27 09:06:02;;;;;;;;;;;18.40;99.90;;;;;;4375512;32;19996;-83
2022/06/27 09:08:31;;;;;;;;;;;18.40;99.90;;;;;;4362429;32;43125;-82
2022/06/27 09:10:59;;;;;;;;;;;18.40;99.90;;;;;;4363754;32;42882;-83
2022/06/27 09:13:27;;;;;;;;;;;18.40;99.90;;;;;;4364199;32;44780;-83
2022/06/27 09:15:58;;;;;;;;;;;18.50;99.90;;;;;;4377630;32;43963;-83
2022/06/27 09:18:27;;;;;;;;;;;18.50;99.90;;;;;;4364250;32;44100;-78
2022/06/27 09:21:01;;;;;;;;;;;18.50;99.90;;;;;;4377437;32;43545;-81
2022/06/27 09:23:50;;;;;;;;;;;18.40;99.90;;;;;;4377715;32;43354;-80
2022/06/27 09:26:22;;;;;;;;;;;18.40;99.90;;;;;;4377470;32;43979;-81
2022/06/27 09:28:50;;;;;;;;;;;18.50;99.90;;;;;;4363930;32;42473;-81
2022/06/27 09:31:32;;;;;;;;;;;18.40;99.90;;;;;;4376915;32;44199;-81
2022/06/27 09:34:19;;;;;;;;;;;18.50;99.90;;;;;;4363549;32;44272;-80
2022/06/27 09:36:49;;;;;;;;;;;18.50;99.90;;;;;;4364581;32;20001;-81
2022/06/27 09:39:16;;;;;;;;;;;18.50;99.90;;;;;;4377136;32;44256;-80
2022/06/27 09:41:47;;;;;;;;;;;18.50;99.90;;;;;;4363905;32;43908;-81
2022/06/27 09:44:16;;;;;;;;;;;18.50;99.90;;;;;;4376916;32;44492;-80
2022/06/27 09:46:50;;;;;;;;;;;18.50;99.90;;;;;;4376854;32;45828;-81
2022/06/27 09:49:19;;;;;;;;;;;18.50;99.90;;;;;;4376848;32;44170;-80
2022/06/27 09:51:48;;;;;;;;;;;18.50;99.90;;;;;;4376526;32;43510;-81
2022/06/27 09:54:16;;;;;;;;;;;18.50;99.90;;;;;;4377108;32;42885;-81
2022/06/27 09:56:45;;;;;;;;;;;18.50;99.90;;;;;;4363469;32;44179;-81
2022/06/27 09:59:12;;;;;;;;;;;18.50;99.90;;;;;;4376812;32;42926;-83
2022/06/27 10:01:41;;;;;;;;;;;18.50;99.90;;;;;;4376434;32;44182;-80
2022/06/27 10:04:09;;;;;;;;;;;18.50;99.90;;;;;;4363649;32;44323;-81
2022/06/27 10:06:40;;;;;;;;;;;18.50;99.90;;;;;;4376449;32;44135;-81
2022/06/27 10:09:11;;;;;;;;;;;18.50;99.90;;;;;;4363355;32;43863;-81
2022/06/27 10:11:39;;;;;;;;;;;18.50;99.90;;;;;;4363496;32;43869;-81
2022/06/27 10:14:13;;;;;;;;;;;18.50;99.90;;;;;;4376504;32;43873;-81
2022/06/27 10:16:50;;;;;;;;;;;18.60;99.90;;;;;;4363396;32;43883;-79
2022/06/27 10:19:18;;;;;;;;;;;18.60;99.90;;;;;;4363004;32;43458;-81
2022/06/27 10:21:46;;;;;;;;;;;18.60;99.90;;;;;;4363755;32;20098;-83
2022/06/27 10:24:31;;;;;;;;;;;18.60;99.90;;;;;;4377687;32;20007;-80
2022/06/27 10:27:00;;;;;;;;;;;18.60;99.90;;;;;;4363343;32;43845;-80
2022/06/27 10:29:27;;;;;;;;;;;18.60;99.90;;;;;;4376453;32;42915;-79
2022/06/27 10:31:55;;;;;;;;;;;18.60;99.90;;;;;;4376417;32;43598;-81
2022/06/27 10:34:37;;;;;;;;;;;18.60;99.90;;;;;;4363146;32;44348;-81
2022/06/27 10:37:24;;;;;;;;;;;18.60;99.90;;;;;;4376040;32;44025;-81
2022/06/27 10:40:10;;;;;;;;;;;18.60;99.90;;;;;;4362869;32;43535;-81
2022/06/27 10:42:43;;;;;;;;;;;18.70;99.90;;;;;;4376386;32;43485;-80
2022/06/27 10:45:19;;;;;;;;;;;18.70;99.90;;;;;;4362452;32;42912;-80
2022/06/27 10:47:51;;;;;;;;;;;18.70;99.90;;;;;;4376397;32;43182;-80
2022/06/27 10:50:22;;;;;;;;;;;18.70;99.90;;;;;;4376274;32;43874;-79
2022/06/27 10:52:51;;;;;;;;;;;18.70;99.90;;;;;;4375800;32;44212;-80
2022/06/27 10:55:23;;;;;;;;;;;18.70;99.90;;;;;;4376064;32;44732;-79
2022/06/27 10:57:51;;;;;;;;;;;18.70;99.90;;;;;;4362503;32;43740;-80
2022/06/27 11:00:38;;;;;;;;;;;18.70;99.90;;;;;;4362915;32;43343;-80
2022/06/27 11:03:06;;;;;;;;;;;18.70;99.90;;;;;;4361749;32;43196;-80
2022/06/27 11:05:52;;;;;;;;;;;18.70;99.90;;;;;;4362521;32;44198;-79
2022/06/27 11:08:20;;;;;;;;;;;18.80;99.90;;;;;;4362097;32;45668;-78
2022/06/27 11:10:47;;;;;;;;;;;18.80;99.90;;;;;;4375884;32;43854;-80
2022/06/27 11:13:33;;;;;;;;;;;18.80;99.90;;;;;;4375837;32;44436;-80
2022/06/27 11:16:00;;;;;;;;;;;18.70;99.90;;;;;;4362114;32;42910;-82
2022/06/27 11:18:27;;;;;;;;;;;18.70;99.90;;;;;;4362075;32;42260;-80
2022/06/27 11:20:57;;;;;;;;;;;18.80;99.90;;;;;;4375380;32;43012;-80
2022/06/27 11:23:25;;;;;;;;;;;18.80;99.90;;;;;;4361906;32;44159;-80
2022/06/27 11:25:55;;;;;;;;;;;18.80;99.90;;;;;;4375638;32;42271;-80
2022/06/27 11:33:58;;;;;;;;;;;18.80;99.90;;;;;;4375786;32;44211;-80
2022/06/27 11:36:26;;;;;;;;;;;18.80;99.90;;;;;;4375134;32;44576;-80
2022/06/27 11:38:53;;;;;;;;;;;18.80;99.90;;;;;;4362123;32;43021;-80
2022/06/27 11:41:27;;;;;;;;;;;18.80;99.90;;;;;;4362883;32;43523;-81
2022/06/27 11:44:02;;;;;;;;;;;18.80;99.90;;;;;;4375162;32;42508;-79
2022/06/27 11:46:32;;;;;;;;;;;18.80;99.90;;;;;;4362173;32;43176;-79
2022/06/27 11:49:00;;;;;;;;;;;18.90;99.90;;;;;;4375614;32;43469;-79
2022/06/27 11:51:29;;;;;;;;;;;18.90;99.90;;;;;;4375346;32;43863;-79
2022/06/27 11:54:00;;;;;;;;;;;18.80;99.90;;;;;;4374868;32;44270;-79
2022/06/27 11:56:31;;;;;;;;;;;18.90;99.90;;;;;;4375494;32;44961;-78
2022/06/27 11:58:58;;;;;;;;;;;18.90;99.90;;;;;;4375252;32;43761;-81
2022/06/27 12:01:26;;;;;;;;;;;18.90;99.90;;;;;;4361269;32;44791;-79
2022/06/27 12:04:06;;;;;;;;;;;18.90;99.90;;;;;;4361771;32;44976;-80
2022/06/27 12:06:40;;;;;;;;;;;18.90;99.90;;;;;;4375655;32;44285;-78
2022/06/27 12:09:07;;;;;;;;;;;18.90;99.90;;;;;;4375357;32;43260;-80
2022/06/27 12:11:34;;;;;;;;;;;18.90;99.90;;;;;;4374856;32;42751;-79
2022/06/27 12:14:02;;;;;;;;;;;19.00;99.90;;;;;;4374656;32;44685;-79
2022/06/27 12:16:43;;;;;;;;;;;19.00;99.90;;;;;;4375105;32;43699;-77
2022/06/27 12:19:11;;;;;;;;;;;19.00;99.90;;;;;;4375071;32;43317;-81
2022/06/27 12:21:38;;;;;;;;;;;19.00;99.90;;;;;;4374613;32;42958;-82
2022/06/27 12:24:06;;;;;;;;;;;19.00;99.90;;;;;;4375141;32;42860;-80
2022/06/27 12:26:33;;;;;;;;;;;19.00;99.90;;;;;;4374593;32;44198;-82
2022/06/27 12:29:00;;;;;;;;;;;19.00;99.90;;;;;;4361576;32;43294;-80
2022/06/27 12:31:28;;;;;;;;;;;19.00;99.90;;;;;;4374660;32;43780;-79
2022/06/27 12:33:55;;;;;;;;;;;18.90;99.90;;;;;;4374769;32;44156;-81
2022/06/27 12:36:22;;;;;;;;;;;18.90;99.90;;;;;;4361139;32;43491;-79
2022/06/27 12:38:49;;;;;;;;;;;18.90;99.90;;;;;;4374766;32;42926;-79
2022/06/27 12:41:17;;;;;;;;;;;18.80;99.90;;;;;;4375054;32;43584;-78
2022/06/27 12:43:46;;;;;;;;;;;18.80;99.90;;;;;;4362858;32;43486;-79
2022/06/27 12:46:14;;;;;;;;;;;18.70;99.90;;;;;;4364189;32;42426;-80
2022/06/27 12:48:41;;;;;;;;;;;18.70;99.90;;;;;;4364418;32;44202;-78
2022/06/27 12:51:08;;;;;;;;;;;18.70;99.90;;;;;;4377931;32;43825;-78
2022/06/27 12:53:36;;;;;;;;;;;18.70;99.90;;;;;;4364623;32;43308;-79
2022/06/27 12:56:04;;;;;;;;;;;18.60;99.90;;;;;;4364746;32;43099;-76
2022/06/27 12:58:33;;;;;;;;;;;18.60;99.90;;;;;;4363955;32;43236;-78
2022/06/27 13:01:00;;;;;;;;;;;18.60;99.90;;;;;;4363900;32;44288;-79
2022/06/27 13:03:30;;;;;;;;;;;18.60;99.90;;;;;;4363755;32;44265;-78
2022/06/27 13:05:58;;;;;;;;;;;18.60;99.90;;;;;;4364305;32;46096;-79
2022/06/27 13:08:25;;;;;;;;;;;18.50;99.90;;;;;;4377719;32;42170;-79
2022/06/27 13:10:52;;;;;;;;;;;18.50;99.90;;;;;;4364256;32;43209;-82
2022/06/27 13:13:19;;;;;;;;;;;18.50;99.90;;;;;;4377653;32;43953;-79
2022/06/27 13:15:46;;;;;;;;;;;18.50;99.90;;;;;;4377469;32;43481;-79
2022/06/27 13:18:13;;;;;;;;;;;18.50;99.90;;;;;;4377907;32;43167;-80
2022/06/27 13:20:43;;;;;;;;;;;18.50;99.90;;;;;;4364102;32;42213;-80
2022/06/27 13:23:14;;;;;;;;;;;18.50;99.90;;;;;;4364553;32;43484;-80
2022/06/27 13:25:41;;;;;;;;;;;18.50;99.90;;;;;;4377454;32;43938;-79
2022/06/27 13:28:08;;;;;;;;;;;18.50;99.90;;;;;;4377025;32;43367;-77
2022/06/27 13:30:36;;;;;;;;;;;18.50;99.90;;;;;;4363970;32;43490;-78
2022/06/27 13:33:03;;;;;;;;;;;18.50;99.90;;;;;;4376992;32;42265;-78
2022/06/27 13:35:30;;;;;;;;;;;18.50;99.90;;;;;;4377353;32;45504;-79
2022/06/27 13:38:00;;;;;;;;;;;18.50;99.90;;;;;;4363909;32;43485;-82
2022/06/27 13:40:27;;;;;;;;;;;18.50;99.90;;;;;;4376833;32;43182;-76
2022/06/27 13:42:54;;;;;;;;;;;18.50;99.90;;;;;;4363787;32;34946;-78
2022/06/27 13:45:22;;;;;;;;;;;18.50;99.90;;;;;;4376892;32;42651;-79
2022/06/27 13:47:49;;;;;;;;;;;18.50;99.90;;;;;;4377147;32;46163;-79
2022/06/27 13:50:16;;;;;;;;;;;18.50;99.90;;;;;;4377067;32;44166;-78
2022/06/27 13:52:46;;;;;;;;;;;18.50;99.90;;;;;;4377073;32;43478;-79
2022/06/27 13:55:13;;;;;;;;;;;18.50;99.90;;;;;;4362401;32;43274;-79
2022/06/27 13:57:42;;;;;;;;;;;18.50;99.90;;;;;;4363295;32;44676;-78
2022/06/27 14:00:29;;;;;;;;;;;18.50;99.90;;;;;;4366029;32;45449;-79
2022/06/27 14:02:56;;;;;;;;;;;18.50;99.90;;;;;;4363152;32;42901;-79
2022/06/27 14:05:23;;;;;;;;;;;18.50;99.90;;;;;;4376342;32;45554;-78
2022/06/27 14:07:51;;;;;;;;;;;18.50;99.90;;;;;;4376962;32;44353;-80
2022/06/27 14:10:20;;;;;;;;;;;18.50;99.90;;;;;;4376926;32;43723;-77
2022/06/27 14:12:48;;;;;;;;;;;18.50;99.90;;;;;;4377209;32;20004;-78
2022/06/27 14:15:21;;;;;;;;;;;18.50;99.90;;;;;;4363877;32;45221;-77
2022/06/27 14:17:50;;;;;;;;;;;18.50;99.90;;;;;;4376544;32;44064;-77
2022/06/27 14:20:19;;;;;;;;;;;18.40;99.90;;;;;;4362734;32;43905;-76
2022/06/27 14:22:50;;;;;;;;;;;18.40;99.90;;;;;;4377566;32;19996;-77
2022/06/27 14:25:24;;;;;;;;;;;18.40;99.90;;;;;;4363135;32;43942;-76
2022/06/27 14:27:53;;;;;;;;;;;18.40;99.90;;;;;;4363785;32;20004;-77
2022/06/27 14:30:20;;;;;;;;;;;18.40;99.90;;;;;;4362603;32;42902;-76
2022/06/27 14:32:48;;;;;;;;;;;18.40;99.90;;;;;;4362729;32;36710;-76
2022/06/27 14:35:35;;;;;;;;;;;18.40;99.90;;;;;;4376589;32;45268;-76